createdAt,value
2023-04-17T00:05:29.372Z,19.5
2023-04-17T00:11:36.018Z,19.2
2023-04-17T00:17:27.789Z,20
2023-04-17T00:23:03.972Z,22.8
2023-04-17T00:28:25.326Z,20.8
2023-04-17T00:34:17.572Z,19.8
2023-04-17T00:40:08.690Z,19.4
2023-04-17T00:46:00.424Z,19.2
2023-04-17T00:51:52.385Z,20.1
2023-04-17T00:57:43.541Z,22.8
2023-04-17T01:03:38.171Z,20.7
2023-04-17T01:09:15.525Z,19.8
2023-04-17T01:14:50.476Z,19.4
2023-04-17T01:20:42.821Z,19.1
2023-04-17T01:26:34.403Z,20.2
2023-04-17T01:32:25.585Z,22.8
2023-04-17T01:38:02.036Z,20.6
2023-04-17T01:43:53.557Z,19.8
2023-04-17T01:49:30.084Z,19.4
2023-04-17T01:55:21.693Z,19.1
2023-04-17T02:00:58.159Z,20.3
2023-04-17T02:06:35.610Z,22.8
2023-04-17T02:12:28.039Z,20.7
2023-04-17T02:18:04.249Z,19.8
2023-04-17T02:23:40.335Z,19.4
2023-04-17T02:29:32.458Z,19.1
2023-04-17T02:35:24.060Z,20.1
2023-04-17T02:41:15.199Z,22.8
2023-04-17T02:47:07.392Z,20.6
2023-04-17T02:52:43.768Z,19.8
2023-04-17T02:58:35.283Z,19.4
2023-04-17T03:04:28.853Z,19.1
2023-04-17T03:10:20.836Z,20.5
2023-04-17T03:16:14.155Z,22.8
2023-04-17T03:22:06.799Z,20.6
2023-04-17T03:27:42.731Z,19.8
2023-04-17T03:33:36.753Z,19.4
2023-04-17T03:39:13.366Z,19.2
2023-04-17T03:44:50.047Z,20.4
2023-04-17T03:50:41.401Z,22.8
2023-04-17T03:56:17.980Z,20.6
2023-04-17T04:01:54.317Z,19.8
2023-04-17T04:07:46.582Z,19.4
2023-04-17T04:13:38.842Z,19.2
2023-04-17T04:19:15.415Z,19.6
2023-04-17T04:24:52.150Z,22.5
2023-04-17T04:30:44.882Z,21
2023-04-17T04:36:06.877Z,19.9
2023-04-17T04:41:45.769Z,19.5
2023-04-17T04:47:06.983Z,19.3
2023-04-17T04:52:43.279Z,19.1
2023-04-17T04:58:02.543Z,22
2023-04-17T05:03:41.339Z,21.8
2023-04-17T05:09:18.951Z,20.1
2023-04-17T05:14:53.981Z,19.6
2023-04-17T05:20:48.812Z,19.3
2023-04-17T05:26:40.200Z,19.1
2023-04-17T05:32:16.087Z,21.8
2023-04-17T05:37:52.834Z,21.9
2023-04-17T05:43:32.079Z,20.1
2023-04-17T05:49:07.867Z,19.6
2023-04-17T05:54:44.657Z,19.4
2023-04-17T06:00:36.034Z,19.1
2023-04-17T06:06:15.995Z,21.4
2023-04-17T06:11:54.885Z,22.3
2023-04-17T06:17:30.941Z,20.3
2023-04-17T06:23:08.292Z,19.7
2023-04-17T06:28:44.521Z,19.4
2023-04-17T06:34:20.852Z,19.2
2023-04-17T06:40:05.071Z,20.6
2023-04-17T06:45:26.540Z,22.8
2023-04-17T06:51:02.870Z,20.6
2023-04-17T06:56:38.434Z,19.8
2023-04-17T07:02:18.470Z,19.5
2023-04-17T07:07:40.947Z,19.3
2023-04-17T07:13:01.353Z,19.5
2023-04-17T07:18:39.159Z,22.6
2023-04-17T07:24:16.344Z,21.1
2023-04-17T07:29:52.278Z,19.9
2023-04-17T07:35:29.852Z,19.6
2023-04-17T07:41:09.403Z,19.3
2023-04-17T07:46:47.933Z,19.1
2023-04-17T07:52:12.714Z,18.8
2023-04-17T07:57:52.071Z,18.8
2023-04-17T08:03:13.660Z,22.2
2023-04-17T08:08:53.064Z,20.4
2023-04-17T08:14:26.547Z,19.8
2023-04-17T08:20:02.929Z,19.5
2023-04-17T08:25:43.136Z,19.3
2023-04-17T08:31:21.840Z,19
2023-04-17T08:37:31.463Z,18.8
2023-04-17T08:43:09.383Z,18.6
2023-04-17T08:49:02.149Z,21.4
2023-04-17T08:54:53.356Z,21
2023-04-17T09:00:15.002Z,20
2023-04-17T09:05:54.434Z,19.6
2023-04-17T09:11:30.080Z,19.4
2023-04-17T09:17:23.663Z,19.2
2023-04-17T09:22:45.066Z,18.9
2023-04-17T09:28:05.242Z,18.8
2023-04-17T09:33:27.650Z,18.6
2023-04-17T09:39:06.871Z,20.7
2023-04-17T09:44:58.520Z,21.6
2023-04-17T09:50:51.720Z,20.1
2023-04-17T09:56:28.716Z,19.7
2023-04-17T10:02:21.053Z,19.4
2023-04-17T10:08:14.740Z,19.2
2023-04-17T10:14:06.794Z,18.9
2023-04-17T10:20:00.228Z,18.8
2023-04-17T10:25:53.990Z,18.6
2023-04-17T10:31:48.363Z,21.4
2023-04-17T10:37:42.039Z,21.4
2023-04-17T10:43:19.637Z,20.1
2023-04-17T10:49:13.348Z,19.7
2023-04-17T10:55:05.393Z,19.4
2023-04-17T11:01:01.184Z,19.2
2023-04-17T11:06:39.789Z,18.9
2023-04-17T11:12:33.538Z,18.8
2023-04-17T11:18:10.811Z,18.6
2023-04-17T11:23:47.682Z,22.3
2023-04-17T11:29:23.929Z,20.7
2023-04-17T11:34:45.804Z,19.9
2023-04-17T11:40:22.814Z,19.6
2023-04-17T11:45:59.604Z,19.3
2023-04-17T11:51:52.160Z,19.1
2023-04-17T11:57:43.428Z,18.9
2023-04-17T12:03:37.062Z,21.4
2023-04-17T12:09:15.777Z,21.2
2023-04-17T12:15:07.762Z,20.1
2023-04-17T12:20:44.250Z,19.8
2023-04-17T12:26:35.953Z,19.5
2023-04-17T12:32:12.798Z,19.3
2023-04-17T12:37:48.969Z,19.1
2023-04-17T12:43:39.047Z,18.9
2023-04-17T12:49:32.866Z,18.8
2023-04-17T12:55:24.157Z,18.6
2023-04-17T13:01:16.540Z,18.4
2023-04-17T13:07:10.244Z,18.3
2023-04-17T13:12:30.351Z,18.2
2023-04-17T13:18:24.208Z,18.1
2023-04-17T13:24:16.129Z,17.9
2023-04-17T13:30:09.565Z,17.8
2023-04-17T13:36:04.872Z,17.7
2023-04-17T13:41:41.877Z,17.6
2023-04-17T13:47:35.062Z,17.5
2023-04-17T13:53:28.720Z,17.4
2023-04-17T13:59:19.681Z,17.4
2023-04-17T14:05:00.465Z,17.3
2023-04-17T14:10:40.486Z,17.3
2023-04-17T14:16:31.965Z,17.2
2023-04-17T14:22:15.732Z,17.1
2023-04-17T14:39:09.945Z,16.9
2023-04-17T14:45:03.861Z,16.9
2023-04-17T14:51:07.140Z,16.8
2023-04-17T14:56:57.457Z,16.8
2023-04-17T15:02:50.353Z,16.8
2023-04-17T15:08:27.440Z,16.8
2023-04-17T15:14:19.129Z,16.7
2023-04-17T15:20:11.541Z,16.7
2023-04-17T15:26:03.156Z,16.6
2023-04-17T15:31:53.962Z,16.6
2023-04-17T15:37:45.666Z,16.6
2023-04-17T15:43:39.210Z,16.6
2023-04-17T15:49:55.528Z,16.6
2023-04-17T15:55:49.853Z,16.6
2023-04-17T16:01:41.178Z,16.6
2023-04-17T16:07:18.833Z,16.6
2023-04-17T16:13:11.035Z,16.5
2023-04-17T16:19:02.153Z,16.5
2023-04-17T16:24:53.784Z,16.5
2023-04-17T16:30:30.800Z,16.5
2023-04-17T16:36:22.572Z,16.4
2023-04-17T16:42:04.773Z,16.4
2023-04-17T16:48:20.572Z,16.4
2023-04-17T16:54:13.795Z,16.4
2023-04-17T17:00:04.462Z,16.4
2023-04-17T17:05:57.989Z,16.4
2023-04-17T17:11:03.460Z,16.4
2023-04-17T17:16:39.245Z,16.4
2023-04-17T17:22:31.458Z,16.4
2023-04-17T17:28:06.069Z,16.3
2023-04-17T17:33:44.579Z,16.4
2023-04-17T17:39:31.309Z,16.3
2023-04-17T17:45:22.620Z,16.3
2023-04-17T17:51:16.536Z,16.3
2023-04-17T17:56:55.261Z,16.3
2023-04-17T18:02:45.479Z,16.3
2023-04-17T18:08:23.659Z,16.3
2023-04-17T18:13:45.068Z,16.3
2023-04-17T18:19:21.840Z,16.3
2023-04-17T18:24:57.278Z,16.3
2023-04-17T18:30:33.590Z,16.3
2023-04-17T18:36:25.580Z,16.3
2023-04-17T18:42:04.111Z,16.2
2023-04-17T18:47:40.737Z,18.9
2023-04-17T18:53:23.298Z,22.1
2023-04-17T18:58:59.639Z,21.3
2023-04-17T19:04:06.733Z,20.2
2023-04-17T19:10:00.114Z,19.8
2023-04-17T19:15:52.758Z,19.5
2023-04-17T19:21:45.633Z,19.3
2023-04-17T19:27:38.852Z,19.1
2023-04-17T19:33:16.062Z,18.8
2023-04-17T19:44:45.573Z,21.7
2023-04-17T19:50:38.882Z,21.7
2023-04-17T19:55:46.124Z,20.3
2023-04-17T20:01:40.998Z,19.9
2023-04-17T20:07:04.514Z,19.6
2023-04-17T20:12:56.909Z,19.4
2023-04-17T20:18:33.829Z,19.1
2023-04-17T20:24:27.462Z,18.9
2023-04-17T20:30:19.608Z,18.8
2023-04-17T20:36:12.200Z,20.4
2023-04-17T20:41:32.354Z,22.8
2023-04-17T20:47:25.079Z,20.8
2023-04-17T20:53:29.793Z,20.1
2023-04-17T20:59:20.487Z,19.7
2023-04-17T21:05:11.806Z,19.4
2023-04-17T21:10:48.658Z,19.2
2023-04-17T21:16:08.968Z,19
2023-04-17T21:21:45.973Z,18.8
2023-04-17T21:27:21.350Z,18.6
2023-04-17T21:32:57.508Z,21.6
2023-04-17T21:38:33.846Z,21.8
2023-04-17T21:44:27.545Z,20.4
2023-04-17T21:50:18.654Z,19.9
2023-04-17T21:56:11.123Z,19.6
2023-04-17T22:02:01.782Z,19.4
2023-04-17T22:08:04.796Z,19.1
2023-04-17T22:13:10.549Z,18.9
2023-04-17T22:19:02.492Z,18.8
2023-04-17T22:24:53.689Z,19.1
2023-04-17T22:30:30.288Z,22.4
2023-04-17T22:36:05.682Z,20.9
2023-04-17T22:41:56.654Z,20.1
2023-04-17T22:47:18.739Z,19.8
2023-04-17T22:52:55.382Z,19.5
2023-04-17T22:58:41.647Z,19.3
2023-04-17T23:04:34.533Z,19.1
2023-04-17T23:10:10.830Z,18.8
2023-04-17T23:21:08.545Z,20.3
2023-04-17T23:26:34.295Z,22.7
2023-04-17T23:32:10.411Z,20.7
2023-04-17T23:37:47.120Z,20.1
2023-04-17T23:43:23.478Z,19.7
2023-04-17T23:49:15.718Z,19.4
2023-04-17T23:55:07.901Z,19.2
